Farmersville's Hourly Summary for Sunday, April 16, 2017
Hour Temp
(f)
RH
(%)
Solar Rad.
(MJ/m2)
Rainfall
(in)
Wind
(mph)
4/16/2017 12:00 AM 67 75 0 0 1.55
4/16/2017 1:00 AM 67 74 0 0 2.31
4/16/2017 2:00 AM 67 76 0 0 2.42
4/16/2017 3:00 AM 66 82 0 0 2.6
4/16/2017 4:00 AM 66 85 0 0 3
4/16/2017 5:00 AM 65 87 0 0 1.63
4/16/2017 6:00 AM 64 99 0 0 2.15
4/16/2017 7:00 AM 63 99 0 0 1.79
4/16/2017 8:00 AM 65 99 0.29 0 1.52
4/16/2017 9:00 AM 67 100 0.39 0 3.9
4/16/2017 10:00 AM 68 94 0.6 0 4.61
4/16/2017 11:00 AM 70 87 0.5 0 4.49
4/16/2017 12:00 PM 71 72 0.81 0 2.9
4/16/2017 1:00 PM 73 73 1.09 0 2.66
4/16/2017 2:00 PM 74 71 1.5 0 4.17
4/16/2017 3:00 PM 76 67 1.45 0 4.24
4/16/2017 4:00 PM 76 64 1.03 0 3.7
4/16/2017 5:00 PM 79 59 2.08 0 5.07
4/16/2017 6:00 PM 78 60 0.65 0 2.32
4/16/2017 7:00 PM 77 64 0.33 0 0.49
4/16/2017 8:00 PM 75 69 0.11 0 0.19
4/16/2017 9:00 PM 72 76 0 0 0
4/16/2017 10:00 PM 71 79 0 0 0.09
4/16/2017 11:00 PM 69 84 0 0 0.05
Data Summary 70 78 10.83 0.00 2.41